createdAt,value
2023-04-02T00:02:23.427Z,3.85
2023-04-02T00:05:54.852Z,3.92
2023-04-02T00:09:12.923Z,5.22
2023-04-02T00:12:25.588Z,3.28
2023-04-02T00:15:45.443Z,2.83
2023-04-02T00:19:00.515Z,4.05
2023-04-02T00:22:21.225Z,2.65
2023-04-02T00:25:36.702Z,2.45
2023-04-02T00:28:50.837Z,3.25
2023-04-02T00:32:03.499Z,2.78
2023-04-02T00:35:21.463Z,2.83
2023-04-02T00:38:34.152Z,2.20
2023-04-02T00:41:49.283Z,2.80
2023-04-02T00:45:02.093Z,3.78
2023-04-02T00:48:34.257Z,3.10
2023-04-02T00:51:50.377Z,4.50
2023-04-02T00:55:06.983Z,2.95
2023-04-02T00:58:25.773Z,4.15
2023-04-02T01:01:42.697Z,3.58
2023-04-02T01:05:02.893Z,3.03
2023-04-02T01:08:50.656Z,5.28
2023-04-02T01:12:12.612Z,3.62
2023-04-02T01:15:27.538Z,3.25
2023-04-02T01:19:18.363Z,4.18
2023-04-02T01:23:00.363Z,3.35
2023-04-02T01:26:41.835Z,4.32
2023-04-02T01:29:56.757Z,5.28
2023-04-02T01:33:09.567Z,5.25
2023-04-02T01:36:54.540Z,3.08
2023-04-02T01:40:20.365Z,2.72
2023-04-02T01:43:37.446Z,4.75
2023-04-02T01:50:20.200Z,1.73
2023-04-02T01:53:33.378Z,2.17
2023-04-02T01:56:47.276Z,1.62
2023-04-02T02:00:01.807Z,2.45
2023-04-02T02:03:14.654Z,2.22
2023-04-02T02:06:27.540Z,3.53
2023-04-02T02:09:39.938Z,2.95
2023-04-02T02:12:52.638Z,2.53
2023-04-02T02:16:06.738Z,3.00
2023-04-02T02:19:29.792Z,2.95
2023-04-02T02:22:46.907Z,3.40
2023-04-02T02:25:59.596Z,3.05
2023-04-02T02:29:12.004Z,4.00
2023-04-02T02:32:27.707Z,2.35
2023-04-02T02:35:50.958Z,2.70
2023-04-02T02:39:20.468Z,3.58
2023-04-02T02:42:37.024Z,2.78
2023-04-02T02:45:49.821Z,6.00
2023-04-02T02:49:02.418Z,3.08
2023-04-02T02:52:17.404Z,2.58
2023-04-02T02:55:34.870Z,2.03
2023-04-02T02:58:49.075Z,2.35
2023-04-02T03:02:02.011Z,10.82
2023-04-02T03:05:20.591Z,3.45
2023-04-02T03:09:04.463Z,1.77
2023-04-02T03:12:29.823Z,2.72
2023-04-02T03:15:42.665Z,2.58
2023-04-02T03:19:02.573Z,2.83
2023-04-02T03:22:17.006Z,2.55
2023-04-02T03:25:48.988Z,2.55
2023-04-02T03:29:19.417Z,3.45
2023-04-02T03:32:37.613Z,3.80
2023-04-02T03:36:06.310Z,2.40
2023-04-02T03:39:37.506Z,3.60
2023-04-02T03:42:56.088Z,2.78
2023-04-02T03:46:33.140Z,2.78
2023-04-02T03:50:08.808Z,4.10
2023-04-02T03:53:25.685Z,2.78
2023-04-02T03:56:41.470Z,3.00
2023-04-02T04:00:10.601Z,4.03
2023-04-02T04:03:32.953Z,3.78
2023-04-02T04:06:46.684Z,2.80
2023-04-02T04:09:59.097Z,3.08
2023-04-02T04:13:14.165Z,3.12
2023-04-02T04:16:32.496Z,4.30
2023-04-02T04:19:55.525Z,3.25
2023-04-02T04:23:25.888Z,3.47
2023-04-02T04:26:42.857Z,3.40
2023-04-02T04:30:03.954Z,3.50
2023-04-02T04:33:25.826Z,3.17
2023-04-02T04:36:54.327Z,4.57
2023-04-02T04:40:17.475Z,3.90
2023-04-02T04:43:42.197Z,3.50
2023-04-02T04:46:59.656Z,3.85
2023-04-02T04:50:23.033Z,3.42
2023-04-02T04:53:41.097Z,4.43
2023-04-02T04:56:56.388Z,4.12
2023-04-02T05:00:16.687Z,6.40
2023-04-02T05:03:35.811Z,6.05
2023-04-02T05:07:09.320Z,5.07
2023-04-02T05:10:44.516Z,6.75
2023-04-02T05:14:04.134Z,4.28
2023-04-02T05:17:21.495Z,5.07
2023-04-02T05:20:42.692Z,4.68
2023-04-02T05:24:00.302Z,3.67
2023-04-02T05:27:20.149Z,4.22
2023-04-02T05:30:57.099Z,4.87
2023-04-02T05:34:11.187Z,5.93
2023-04-02T05:37:25.836Z,5.30
2023-04-02T05:40:41.124Z,6.50
2023-04-02T05:44:24.603Z,4.87
2023-04-02T05:47:41.146Z,3.60
2023-04-02T05:50:56.003Z,4.12
2023-04-02T05:54:23.427Z,5.47
2023-04-02T05:58:13.491Z,4.25
2023-04-02T06:01:30.238Z,4.43
2023-04-02T06:04:50.705Z,4.78
2023-04-02T06:08:15.080Z,3.42
2023-04-02T06:11:32.268Z,4.12
2023-04-02T06:14:46.107Z,4.87
2023-04-02T06:18:06.749Z,3.90
2023-04-02T06:21:19.530Z,3.83
2023-04-02T06:24:34.049Z,5.65
2023-04-02T06:27:49.375Z,3.97
2023-04-02T06:31:08.439Z,5.37
2023-04-02T06:34:22.931Z,5.32
2023-04-02T06:37:37.796Z,4.68
2023-04-02T06:40:59.091Z,4.87
2023-04-02T06:44:15.986Z,5.40
2023-04-02T06:47:45.860Z,4.95
2023-04-02T06:51:07.535Z,4.15
2023-04-02T06:54:21.065Z,4.43
2023-04-02T06:57:35.842Z,3.80
2023-04-02T07:00:49.118Z,4.93
2023-04-02T07:04:03.033Z,4.75
2023-04-02T07:07:16.582Z,4.20
2023-04-02T07:10:30.042Z,4.45
2023-04-02T07:13:43.969Z,4.40
2023-04-02T07:16:57.120Z,4.78
2023-04-02T07:20:30.482Z,4.72
2023-04-02T07:23:44.438Z,4.45
2023-04-02T07:26:56.744Z,6.28
2023-04-02T07:30:09.780Z,4.82
2023-04-02T07:33:24.355Z,4.37
2023-04-02T07:36:37.034Z,4.43
2023-04-02T07:39:49.395Z,4.37
2023-04-02T07:43:02.159Z,4.60
2023-04-02T07:46:16.780Z,4.30
2023-04-02T07:49:29.529Z,5.35
2023-04-02T07:52:44.914Z,4.37
2023-04-02T07:55:58.895Z,4.03
2023-04-02T07:59:11.347Z,4.30
2023-04-02T08:02:24.097Z,5.25
2023-04-02T08:05:37.306Z,5.55
2023-04-02T08:08:50.407Z,4.30
2023-04-02T08:12:03.062Z,5.62
2023-04-02T08:15:16.124Z,4.30
2023-04-02T08:18:29.551Z,4.93
2023-04-02T08:21:41.876Z,3.90
2023-04-02T08:24:54.785Z,6.12
2023-04-02T08:28:07.147Z,6.18
2023-04-02T08:31:19.788Z,6.03
2023-04-02T08:34:32.177Z,5.75
2023-04-02T08:37:44.828Z,5.03
2023-04-02T08:40:57.744Z,3.75
2023-04-02T08:44:16.438Z,5.18
2023-04-02T08:47:30.539Z,4.85
2023-04-02T08:50:43.500Z,5.72
2023-04-02T08:54:04.208Z,7.28
2023-04-02T08:57:33.230Z,5.55
2023-04-02T09:00:45.779Z,5.32
2023-04-02T09:03:58.729Z,5.72
2023-04-02T09:07:14.400Z,4.62
2023-04-02T09:10:35.983Z,4.78
2023-04-02T09:13:51.437Z,4.40
2023-04-02T09:17:04.257Z,4.35
2023-04-02T09:20:19.434Z,4.18
2023-04-02T09:23:31.998Z,4.97
2023-04-02T09:26:44.421Z,3.90
2023-04-02T09:30:04.765Z,4.18
2023-04-02T09:33:17.195Z,4.53
2023-04-02T09:36:37.801Z,6.22
2023-04-02T09:39:50.371Z,5.43
2023-04-02T09:43:04.113Z,4.62
2023-04-02T09:46:26.161Z,5.37
2023-04-02T09:49:39.401Z,4.72
2023-04-02T09:52:51.845Z,4.75
2023-04-02T09:56:12.056Z,4.37
2023-04-02T09:59:24.440Z,6.62
2023-04-02T10:02:37.248Z,5.12
2023-04-02T10:05:50.070Z,5.53
2023-04-02T10:09:27.676Z,6.10
2023-04-02T10:12:41.219Z,5.75
2023-04-02T10:16:09.348Z,5.70
2023-04-02T10:19:52.616Z,5.78
2023-04-02T10:23:06.486Z,4.32
2023-04-02T10:26:41.333Z,4.60
2023-04-02T10:30:19.184Z,5.62
2023-04-02T10:33:34.564Z,7.53
2023-04-02T10:36:55.362Z,4.40
2023-04-02T10:40:12.401Z,4.68
2023-04-02T10:43:43.406Z,4.03
2023-04-02T10:47:14.437Z,5.25
2023-04-02T10:50:41.800Z,4.05
2023-04-02T10:54:12.680Z,4.03
2023-04-02T10:57:40.614Z,5.35
2023-04-02T11:01:17.048Z,4.15
2023-04-02T11:04:33.259Z,6.43
2023-04-02T11:07:57.510Z,12.27
2023-04-02T11:11:16.864Z,5.10
2023-04-02T11:14:31.008Z,5.12
2023-04-02T11:17:44.571Z,6.10
2023-04-02T11:20:59.200Z,5.80
2023-04-02T11:24:32.927Z,6.12
2023-04-02T11:27:45.719Z,4.47
2023-04-02T11:30:58.156Z,6.10
2023-04-02T11:34:42.150Z,5.75
2023-04-02T11:37:56.201Z,5.53
2023-04-02T11:41:08.800Z,5.60
2023-04-02T11:44:24.330Z,5.15
2023-04-02T11:47:37.063Z,5.68
2023-04-02T11:50:49.466Z,4.82
2023-04-02T11:54:02.176Z,5.60
2023-04-02T11:57:52.355Z,4.62
2023-04-02T12:01:36.385Z,5.35
2023-04-02T12:04:58.188Z,4.87
2023-04-02T12:08:50.721Z,5.95
2023-04-02T12:12:26.407Z,4.37
2023-04-02T12:15:46.244Z,4.15
2023-04-02T12:18:58.871Z,4.53
2023-04-02T12:22:20.295Z,3.70
2023-04-02T12:25:34.187Z,3.58
2023-04-02T12:28:46.525Z,3.20
2023-04-02T12:31:59.285Z,3.95
2023-04-02T12:35:33.385Z,5.07
2023-04-02T12:38:56.463Z,4.65
2023-04-02T12:42:27.708Z,5.53
2023-04-02T12:45:40.511Z,3.25
2023-04-02T12:48:54.387Z,2.75
2023-04-02T12:52:11.772Z,2.47
2023-04-02T12:58:37.843Z,3.58
2023-04-02T13:01:57.860Z,2.50
2023-04-02T13:05:11.416Z,3.65
2023-04-02T13:08:27.275Z,2.30
2023-04-02T13:11:41.111Z,3.00
2023-04-02T13:14:57.199Z,3.20
2023-04-02T13:18:12.476Z,2.58
2023-04-02T13:21:28.563Z,3.47
2023-04-02T13:24:42.130Z,4.72
2023-04-02T13:27:54.717Z,2.72
2023-04-02T13:31:15.173Z,2.90
2023-04-02T13:34:27.596Z,3.00
2023-04-02T13:37:40.741Z,3.50
2023-04-02T13:40:53.178Z,3.62
2023-04-02T13:44:05.933Z,3.45
2023-04-02T13:47:18.267Z,3.40
2023-04-02T13:50:34.394Z,4.30
2023-04-02T13:53:54.717Z,5.75
2023-04-02T13:57:07.593Z,3.92
2023-04-02T14:00:20.606Z,3.95
2023-04-02T14:03:33.242Z,3.45
2023-04-02T14:07:04.169Z,2.70
2023-04-02T14:10:29.855Z,3.47
2023-04-02T14:13:48.662Z,4.75
2023-04-02T14:17:20.084Z,3.90
2023-04-02T14:20:58.481Z,5.53
2023-04-02T14:24:22.849Z,3.45
2023-04-02T14:27:45.221Z,3.50
2023-04-02T14:31:02.835Z,4.30
2023-04-02T14:34:22.162Z,4.62
2023-04-02T14:37:52.680Z,2.62
2023-04-02T14:41:08.865Z,3.08
2023-04-02T14:44:23.600Z,2.70
2023-04-02T14:47:45.678Z,3.45
2023-04-02T14:51:07.503Z,2.00
2023-04-02T14:54:50.168Z,3.03
2023-04-02T14:58:04.694Z,3.05
2023-04-02T15:01:28.151Z,1.70
2023-04-02T15:04:42.356Z,3.87
2023-04-02T15:08:05.677Z,5.20
2023-04-02T15:11:26.086Z,7.03
2023-04-02T15:14:44.486Z,6.87
2023-04-02T15:17:58.470Z,4.82
2023-04-02T15:21:19.902Z,3.25
2023-04-02T15:24:51.241Z,4.78
2023-04-02T15:28:35.714Z,3.92
2023-04-02T15:31:48.394Z,4.40
2023-04-02T15:35:16.181Z,6.90
2023-04-02T15:38:41.006Z,11.50
2023-04-02T15:42:15.714Z,6.95
2023-04-02T15:46:09.975Z,7.20
2023-04-02T15:49:31.370Z,16.95
2023-04-02T15:52:58.884Z,12.25
2023-04-02T15:56:17.340Z,13.80
2023-04-02T16:00:04.213Z,8.38
2023-04-02T16:03:42.522Z,7.55
2023-04-02T16:07:24.319Z,11.63
2023-04-02T16:10:42.608Z,12.68
2023-04-02T16:14:05.142Z,11.77
2023-04-02T16:17:40.961Z,23.27
2023-04-02T16:20:53.596Z,19.65
2023-04-02T16:24:11.522Z,17.05
2023-04-02T16:27:43.104Z,10.57
2023-04-02T16:30:59.853Z,12.60
2023-04-02T16:34:21.512Z,9.65
2023-04-02T16:37:38.306Z,8.23
2023-04-02T16:41:06.723Z,5.07
2023-04-02T16:44:42.162Z,5.93
2023-04-02T16:48:05.671Z,7.28
2023-04-02T16:51:33.324Z,8.20
2023-04-02T16:55:11.362Z,8.73
2023-04-02T16:58:40.515Z,9.95
2023-04-02T17:02:11.208Z,11.90
2023-04-02T17:05:36.078Z,14.23
2023-04-02T17:08:56.938Z,18.52
2023-04-02T17:12:10.602Z,75.03
2023-04-02T17:15:28.154Z,26.10
2023-04-02T17:18:41.735Z,30.45
2023-04-02T17:21:58.355Z,27.73
2023-04-02T17:25:17.943Z,45.40
2023-04-02T17:28:36.706Z,96.95
2023-04-02T17:31:49.187Z,51.95
2023-04-02T17:35:28.033Z,49.22
2023-04-02T17:39:35.769Z,49.67
2023-04-02T17:43:16.427Z,42.05
2023-04-02T17:46:37.797Z,29.17
2023-04-02T17:50:12.215Z,26.08
2023-04-02T17:53:27.414Z,25.60
2023-04-02T17:56:52.081Z,29.87
2023-04-02T18:00:13.259Z,32.83
2023-04-02T18:03:35.669Z,26.15
2023-04-02T18:06:50.733Z,21.20
2023-04-02T18:10:31.064Z,13.38
2023-04-02T18:14:12.516Z,13.10
2023-04-02T18:17:51.483Z,15.07
2023-04-02T18:21:28.147Z,34.83
2023-04-02T18:25:08.656Z,13.20
2023-04-02T18:28:51.108Z,11.27
2023-04-02T18:32:12.980Z,6.90
2023-04-02T18:35:25.216Z,7.15
2023-04-02T18:38:47.832Z,7.60
2023-04-02T18:42:23.420Z,5.62
2023-04-02T18:45:42.624Z,8.68
2023-04-02T18:49:18.341Z,6.72
2023-04-02T18:52:31.197Z,6.07
2023-04-02T18:55:47.786Z,8.52
2023-04-02T18:59:14.743Z,6.50
2023-04-02T19:02:33.035Z,6.25
2023-04-02T19:06:11.647Z,7.60
2023-04-02T19:09:30.974Z,8.10
2023-04-02T19:12:43.603Z,7.70
2023-04-02T19:16:04.400Z,7.35
2023-04-02T19:19:21.289Z,7.47
2023-04-02T19:23:14.215Z,10.73
2023-04-02T19:26:30.598Z,10.05
2023-04-02T19:29:55.860Z,11.45
2023-04-02T19:33:12.484Z,13.52
2023-04-02T19:36:47.921Z,20.90
2023-04-02T19:40:10.968Z,19.95
2023-04-02T19:43:23.253Z,24.55
2023-04-02T19:46:35.946Z,28.00
2023-04-02T19:49:48.293Z,28.48
2023-04-02T19:53:00.929Z,23.62
2023-04-02T19:56:13.311Z,19.52
2023-04-02T19:59:26.200Z,21.58
2023-04-02T20:02:38.554Z,20.02
2023-04-02T20:05:51.197Z,8.75
2023-04-02T20:09:03.610Z,9.35
2023-04-02T20:12:16.199Z,6.62
2023-04-02T20:15:28.625Z,5.55
2023-04-02T20:18:41.262Z,5.40
2023-04-02T20:21:53.594Z,5.57
2023-04-02T20:25:06.659Z,6.07
2023-04-02T20:28:20.235Z,5.72
2023-04-02T20:31:32.996Z,6.97
2023-04-02T20:34:45.410Z,7.57
2023-04-02T20:37:58.038Z,5.68
2023-04-02T20:41:10.427Z,5.03
2023-04-02T20:44:23.059Z,4.93
2023-04-02T20:47:35.448Z,5.20
2023-04-02T20:50:49.160Z,4.55
2023-04-02T20:54:01.824Z,5.75
2023-04-02T20:57:14.494Z,5.50
2023-04-02T21:00:27.236Z,8.18
2023-04-02T21:03:40.188Z,6.28
2023-04-02T21:06:57.031Z,4.95
2023-04-02T21:13:22.161Z,5.60
2023-04-02T21:16:36.313Z,4.40
2023-04-02T21:19:48.744Z,5.35
2023-04-02T21:23:01.348Z,5.10
2023-04-02T21:26:15.791Z,5.53
2023-04-02T21:29:28.462Z,5.37
2023-04-02T21:32:41.031Z,4.62
2023-04-02T21:35:54.198Z,5.65
2023-04-02T21:39:11.510Z,4.85
2023-04-02T21:42:24.298Z,5.10
2023-04-02T21:45:36.887Z,5.97
2023-04-02T21:48:51.814Z,5.25
2023-04-02T21:52:04.198Z,3.90
2023-04-02T21:55:16.900Z,5.53
2023-04-02T21:58:29.276Z,4.43
2023-04-02T22:01:43.797Z,5.57
2023-04-02T22:04:56.544Z,5.70
2023-04-02T22:08:08.871Z,6.25
2023-04-02T22:11:23.745Z,3.50
2023-04-02T22:14:36.093Z,2.80
2023-04-02T22:17:48.749Z,4.20
2023-04-02T22:21:01.692Z,3.25
2023-04-02T22:24:15.558Z,3.05
2023-04-02T22:27:27.876Z,3.90
2023-04-02T22:30:41.575Z,3.33
2023-04-02T22:33:54.523Z,3.95
2023-04-02T22:37:07.179Z,3.15
2023-04-02T22:40:19.492Z,2.95
2023-04-02T22:43:32.223Z,3.72
2023-04-02T22:46:44.801Z,4.97
2023-04-02T22:49:57.478Z,4.60
2023-04-02T22:53:11.970Z,3.10
2023-04-02T22:56:28.559Z,3.08
2023-04-02T22:59:41.176Z,3.10
2023-04-02T23:02:53.975Z,2.28
2023-04-02T23:06:11.606Z,2.15
2023-04-02T23:09:24.244Z,1.83
2023-04-02T23:12:36.584Z,2.17
2023-04-02T23:15:49.253Z,2.20
2023-04-02T23:19:01.612Z,2.35
2023-04-02T23:22:14.316Z,2.78
2023-04-02T23:25:26.675Z,2.30
2023-04-02T23:28:39.679Z,4.25
2023-04-02T23:31:52.074Z,2.58
2023-04-02T23:35:06.470Z,2.30
2023-04-02T23:38:18.829Z,2.97
2023-04-02T23:41:31.534Z,2.62
2023-04-02T23:44:43.846Z,2.78
2023-04-02T23:47:56.529Z,3.45
2023-04-02T23:51:08.969Z,6.75
2023-04-02T23:54:21.559Z,4.32
2023-04-02T23:57:33.992Z,3.53
